Atwood, Colorado
Current Conditions -  °F | °C
As of 11:30 AM on Wednesday 26 Nov 2014 (Local Time) from KSTK Reporting Station
Light Snow Light Snow  
Wind Chill: 34°   Ceiling: 1000
Heat Index: 34°   Visibility: 5mi
Dew Point: 30°   Wind: 0mph
Humidity: 87%   Direction: NA
Pressure: 30.24"   Gusts: NA
Location:  40.55°N, 103.27°W
Report Text: KSTK 261830Z AUTO 00000KT 5SM -SN BKN010 BKN017 OVC050 01/M01 A3024 RMK AO2
Loading
Personal Weather Stations






























Interactive Weather Map New forecast layout! Learn more

10-Day Weather Forecast

Advertisements
Track Severe Weather on mobile